Time;durP1;ratioP1;P1;durP2;ratioP2;P2;SDS_P1;SDS_P2;PMS_P1;PMS_P2;Temp;Humidity;BMP_temperature;BMP_pressure;BME280_temperature;BME280_humidity;BME280_pressure;Samples;Min_cycle;Max_cycle;Signal;HPM_P1;HPM_P2
2021/10/03 00:02:11;;;;;;;35.88;20.27;;;;;;;6.23;81.14;101301.91;5022798;28;20041;-56
2021/10/03 00:04:37;;;;;;;34.42;18.88;;;;;;;6.21;81.15;101303.63;5024781;28;20120;-58
2021/10/03 00:07:03;;;;;;;36.70;19.77;;;;;;;6.20;81.47;101301.91;5023413;28;20068;-58
2021/10/03 00:09:32;;;;;;;37.60;19.92;;;;;;;6.10;81.57;101294.91;5026970;28;20069;-57
2021/10/03 00:11:58;;;;;;;44.37;20.20;;;;;;;6.18;81.31;101305.31;5022557;28;20137;-58
2021/10/03 00:14:23;;;;;;;40.42;19.23;;;;;;;6.18;81.20;101306.16;5028515;28;20383;-57
2021/10/03 00:16:52;;;;;;;36.72;19.33;;;;;;;6.18;81.95;101297.56;5010456;28;20044;-59
2021/10/03 00:19:19;;;;;;;37.65;20.55;;;;;;;6.17;81.49;101298.44;5023464;28;20037;-57
2021/10/03 00:21:45;;;;;;;35.60;19.48;;;;;;;6.16;81.87;101299.28;5023216;28;20034;-58
2021/10/03 00:24:12;;;;;;;36.03;18.35;;;;;;;6.07;81.48;101287.13;5021928;28;20041;-58
2021/10/03 00:26:39;;;;;;;38.42;19.75;;;;;;;6.17;81.38;101308.75;5000498;28;20042;-57
2021/10/03 00:29:05;;;;;;;32.10;18.98;;;;;;;6.15;81.38;101298.41;5010306;28;20110;-57
2021/10/03 00:31:32;;;;;;;36.17;18.95;;;;;;;6.12;81.92;101292.38;5022518;28;20052;-58
2021/10/03 00:33:58;;;;;;;45.90;18.98;;;;;;;6.11;81.70;101294.06;5022470;28;20045;-58
2021/10/03 00:36:27;;;;;;;33.83;18.25;;;;;;;6.10;81.83;101299.22;5013744;28;20465;-57
2021/10/03 00:38:55;;;;;;;34.80;17.98;;;;;;;6.10;82.05;101292.34;5026697;28;20048;-58
2021/10/03 00:41:25;;;;;;;35.20;17.65;;;;;;;6.08;81.85;101301.78;5021944;28;20042;-57
2021/10/03 00:43:52;;;;;;;33.55;17.73;;;;;;;6.09;82.52;101297.47;5018368;28;20072;-58
2021/10/03 00:46:19;;;;;;;34.22;17.27;;;;;;;6.08;82.03;101300.91;5030090;28;20065;-60
2021/10/03 00:48:58;;;;;;;33.67;17.98;;;;;;;6.06;82.00;101297.47;5018164;28;20041;-61
2021/10/03 00:51:28;;;;;;;35.50;18.63;;;;;;;6.05;81.87;101301.75;5029958;28;20053;-60
2021/10/03 00:53:55;;;;;;;30.80;17.40;;;;;;;6.02;82.11;101299.13;4997703;28;20095;-60
2021/10/03 00:56:22;;;;;;;35.53;18.15;;;;;;;6.01;82.39;101296.56;5013522;28;20041;-59
2021/10/03 00:58:51;;;;;;;35.42;17.83;;;;;;;6.00;82.09;101290.53;5000697;28;20042;-59
2021/10/03 01:01:21;;;;;;;34.78;18.20;;;;;;;5.99;82.02;101291.38;5014662;28;20067;-59
2021/10/03 01:03:49;;;;;;;32.65;17.45;;;;;;;5.97;82.25;101287.88;4983834;28;20934;-60
2021/10/03 01:06:16;;;;;;;36.17;17.90;;;;;;;5.95;82.77;101281.88;5025250;28;20048;-58
2021/10/03 01:08:44;;;;;;;32.00;17.73;;;;;;;5.93;82.84;101284.41;5043214;28;20040;-61
2021/10/03 01:11:11;;;;;;;32.63;17.52;;;;;;;5.91;82.26;101287.84;5039923;28;20065;-60
2021/10/03 01:13:48;;;;;;;36.25;18.67;;;;;;;5.89;82.48;101281.78;5007822;28;20535;-57
2021/10/03 01:16:16;;;;;;;32.70;17.13;;;;;;;5.89;82.21;101287.81;5031235;28;20044;-59
2021/10/03 01:18:46;;;;;;;31.55;17.25;;;;;;;5.88;82.46;101280.94;5001230;28;20087;-60
2021/10/03 01:21:12;;;;;;;;;;;;;;;5.86;82.29;101286.91;5026750;28;20036;-58
2021/10/03 01:23:39;;;;;;;34.53;17.10;;;;;;;5.82;82.12;101283.41;5017858;28;19921;-56
2021/10/03 01:26:05;;;;;;;34.20;16.75;;;;;;;5.75;81.84;101267.88;5036128;28;20041;-57
2021/10/03 01:28:31;;;;;;;28.88;17.17;;;;;;;5.80;81.86;101276.50;5038877;28;20067;-57
2021/10/03 01:30:57;;;;;;;33.22;17.83;;;;;;;5.78;82.53;101280.78;5041948;28;20508;-56
2021/10/03 01:33:26;;;;;;;32.53;17.85;;;;;;;5.75;82.04;101276.47;5037492;28;20064;-57
2021/10/03 01:35:52;;;;;;;32.97;17.88;;;;;;;5.73;81.99;101270.41;5018253;28;20425;-58
2021/10/03 01:38:19;;;;;;;30.58;17.48;;;;;;;5.70;82.60;101275.56;5030212;28;20038;-56
2021/10/03 01:40:48;;;;;;;32.70;17.25;;;;;;;5.68;82.60;101279.81;5044184;28;20458;-57
2021/10/03 01:43:14;;;;;;;35.10;17.25;;;;;;;5.66;82.68;101273.78;5042889;28;20132;-55
2021/10/03 01:45:40;;;;;;;31.52;16.90;;;;;;;5.66;82.69;101283.22;5039177;28;20044;-57
2021/10/03 01:48:13;;;;;;;30.98;16.48;;;;;;;5.66;82.05;101271.19;5048256;28;20439;-56
2021/10/03 01:50:49;;;;;;;35.97;18.08;;;;;;;5.68;82.08;101282.41;5042551;28;20530;-57
2021/10/03 01:53:30;;;;;;;30.92;16.65;;;;;;;5.67;81.47;101272.94;5049668;28;20508;-57
2021/10/03 01:55:57;;;;;;;31.58;17.42;;;;;;;5.67;81.40;101280.66;5045346;28;20099;-57
2021/10/03 01:58:26;;;;;;;35.95;18.13;;;;;;;5.67;81.37;101285.81;5034664;28;20041;-57
2021/10/03 02:00:56;;;;;;;34.17;18.08;;;;;;;5.65;81.72;101278.94;5037390;28;20037;-57
2021/10/03 02:03:22;;;;;;;33.22;17.50;;;;;;;5.58;82.03;101274.53;5042203;28;20044;-58
2021/10/03 02:05:48;;;;;;;31.58;16.50;;;;;;;5.64;82.01;101288.38;5049637;28;20625;-56
2021/10/03 02:08:17;;;;;;;31.63;17.50;;;;;;;5.48;82.25;101264.13;5046861;28;20052;-56
2021/10/03 02:10:46;;;;;;;30.42;16.38;;;;;;;5.57;81.86;101285.69;5035067;28;20053;-57
2021/10/03 02:13:12;;;;;;;29.52;16.77;;;;;;;5.53;81.94;101282.22;5032147;28;20039;-58
2021/10/03 02:15:40;;;;;;;31.05;16.55;;;;;;;5.53;82.35;101289.97;5027589;28;20045;-57
2021/10/03 02:18:08;;;;;;;33.85;17.05;;;;;;;5.56;82.03;101290.00;5043879;28;20144;-57
2021/10/03 02:20:34;;;;;;;34.22;17.02;;;;;;;5.46;81.94;101275.25;5045043;28;20048;-56
2021/10/03 02:23:00;;;;;;;32.55;17.73;;;;;;;5.42;81.82;101273.50;5042784;28;20045;-57
2021/10/03 02:25:26;;;;;;;39.35;18.10;;;;;;;5.42;82.21;101274.38;5016469;28;20092;-57
2021/10/03 02:27:52;;;;;;;37.80;18.15;;;;;;;5.46;82.20;101283.88;5015495;28;20429;-57
2021/10/03 02:30:17;;;;;;;36.38;17.25;;;;;;;5.47;82.20;101288.19;5022519;28;20509;-57
2021/10/03 02:32:43;;;;;;;37.05;19.05;;;;;;;5.46;82.22;101283.00;5019967;28;20444;-57
2021/10/03 02:35:11;;;;;;;34.92;18.75;;;;;;;5.45;82.23;101281.25;5017874;28;20084;-57
2021/10/03 02:37:38;;;;;;;32.53;17.58;;;;;;;5.45;82.17;101284.72;5028344;28;20721;-56
2021/10/03 02:40:06;;;;;;;33.42;17.67;;;;;;;5.44;82.77;101282.97;5012753;28;20084;-55
2021/10/03 02:42:32;;;;;;;33.28;17.40;;;;;;;5.42;82.71;101292.41;5012228;28;20117;-57
2021/10/03 02:44:57;;;;;;;39.72;18.10;;;;;;;5.39;82.16;101294.09;5046391;28;20478;-57
2021/10/03 02:47:23;;;;;;;38.90;18.45;;;;;;;5.37;82.15;101288.91;5029895;28;20091;-58
2021/10/03 02:49:49;;;;;;;37.22;17.15;;;;;;;5.35;82.69;101280.28;5015097;28;20041;-56
2021/10/03 02:52:16;;;;;;;36.25;17.92;;;;;;;5.35;82.29;101287.16;5018020;28;20057;-57
2021/10/03 02:54:42;;;;;;;33.70;17.77;;;;;;;5.35;82.49;101287.16;5021777;28;20041;-56
2021/10/03 02:57:09;;;;;;;35.33;16.83;;;;;;;5.34;82.05;101277.72;5032501;28;20048;-57
2021/10/03 02:59:35;;;;;;;40.45;17.13;;;;;;;5.36;82.19;101288.91;5022181;28;20421;-58
2021/10/03 03:02:00;;;;;;;37.15;16.58;;;;;;;5.36;82.13;101284.59;5032552;28;20037;-59
2021/10/03 03:04:26;;;;;;;33.80;15.95;;;;;;;5.34;82.38;101280.28;5038153;28;20040;-58
2021/10/03 03:06:52;;;;;;;37.95;16.90;;;;;;;5.38;82.63;101290.66;5033346;28;20398;-57
2021/10/03 03:09:18;;;;;;;32.13;16.42;;;;;;;5.39;81.96;101294.09;5033373;28;20064;-56
2021/10/03 03:11:44;;;;;;;33.47;17.20;;;;;;;5.41;81.93;101290.69;5038416;28;20532;-56
2021/10/03 03:14:10;;;;;;;33.35;17.15;;;;;;;5.41;82.46;101294.97;5036663;28;20037;-59
2021/10/03 03:16:51;;;;;;;31.63;16.63;;;;;;;5.41;82.16;101294.97;5050131;28;20040;-57
2021/10/03 03:19:17;;;;;;;34.28;15.95;;;;;;;5.41;82.58;101294.97;5030194;28;20404;-57
2021/10/03 03:21:43;;;;;;;28.85;16.52;;;;;;;5.30;82.49;101276.78;5056333;28;20509;-57
2021/10/03 03:24:10;;;;;;;32.42;16.90;;;;;;;5.41;82.88;101295.84;5032206;28;20524;-57
2021/10/03 03:26:37;;;;;;;32.33;16.88;;;;;;;5.42;82.75;101299.28;5023289;28;20117;-58
2021/10/03 03:29:03;;;;;;;38.78;17.77;;;;;;;5.43;82.76;101298.44;5042038;28;20040;-59
2021/10/03 03:31:29;;;;;;;35.47;16.60;;;;;;;5.44;82.87;101295.03;5049089;28;20102;-56
2021/10/03 03:33:57;;;;;;;35.40;16.85;;;;;;;5.45;83.03;101284.72;5052075;28;20080;-57
2021/10/03 03:36:22;;;;;;;32.85;16.80;;;;;;;5.44;82.91;101285.53;5048766;28;20040;-57
2021/10/03 03:38:48;;;;;;;40.35;18.63;;;;;;;5.46;82.73;101277.84;5044502;28;20056;-58
2021/10/03 03:41:14;;;;;;;35.88;17.98;;;;;;;5.47;82.69;101279.56;5049318;28;20033;-58
2021/10/03 03:43:42;;;;;;;33.92;17.60;;;;;;;5.45;83.50;101276.09;5049498;28;20139;-58
2021/10/03 03:46:08;;;;;;;35.00;17.83;;;;;;;5.46;83.21;101281.28;5034906;28;20057;-58
2021/10/03 03:48:34;;;;;;;38.17;17.95;;;;;;;5.38;83.06;101264.00;5030484;28;20049;-58
2021/10/03 03:51:03;;;;;;;37.60;19.15;;;;;;;5.49;82.95;101286.50;5039227;28;20047;-58
2021/10/03 03:53:30;;;;;;;35.20;17.35;;;;;;;5.51;82.84;101289.06;5035676;28;20044;-57
2021/10/03 03:55:55;;;;;;;37.13;19.13;;;;;;;5.52;83.06;101288.22;5030717;28;20056;-58
2021/10/03 03:58:21;;;;;;;34.10;17.45;;;;;;;5.54;82.90;101294.28;5035568;28;20048;-58
2021/10/03 04:00:47;;;;;;;36.85;19.08;;;;;;;5.54;82.82;101292.56;5028209;28;20041;-58
2021/10/03 04:03:12;;;;;;;32.97;18.45;;;;;;;5.57;83.28;101302.06;5044617;28;20509;-57
2021/10/03 04:05:39;;;;;;;35.22;18.23;;;;;;;5.58;83.49;101292.59;5037585;28;20462;-57
2021/10/03 04:08:07;;;;;;;33.58;18.15;;;;;;;5.60;82.96;101302.06;5045438;28;20049;-56
2021/10/03 04:10:33;;;;;;;32.92;17.33;;;;;;;5.63;83.48;101302.13;5049851;28;20033;-57
2021/10/03 04:12:58;;;;;;;38.13;18.35;;;;;;;5.66;83.27;101297.00;5036753;28;20052;-57
2021/10/03 04:15:24;;;;;;;40.45;18.52;;;;;;;5.69;83.39;101296.19;5050140;28;20040;-59
2021/10/03 04:17:49;;;;;;;43.90;19.10;;;;;;;5.74;83.16;101292.81;5035861;28;20040;-58
2021/10/03 04:20:15;;;;;;;42.83;20.02;;;;;;;5.77;82.93;101297.97;5035546;28;20413;-58
2021/10/03 04:22:41;;;;;;;38.58;19.13;;;;;;;5.80;82.67;101289.41;5043443;28;20496;-57
2021/10/03 04:25:07;;;;;;;37.83;18.92;;;;;;;5.84;82.80;101291.19;5041486;28;20118;-57
2021/10/03 04:27:34;;;;;;;38.80;18.92;;;;;;;5.86;82.82;101292.06;5029880;28;20128;-56
2021/10/03 04:30:00;;;;;;;44.72;18.30;;;;;;;5.88;82.51;101299.00;5046974;28;20086;-58
2021/10/03 04:32:26;;;;;;;38.53;18.98;;;;;;;5.91;82.29;101290.44;5040881;28;20084;-57
2021/10/03 04:34:51;;;;;;;33.13;18.63;;;;;;;5.92;82.84;101302.47;5046580;28;20872;-58
2021/10/03 04:37:17;;;;;;;53.13;19.60;;;;;;;5.97;82.01;101301.66;5029751;28;20056;-58
2021/10/03 04:39:43;;;;;;;36.40;18.63;;;;;;;6.00;82.04;101287.06;5030224;28;20420;-58
2021/10/03 04:42:09;;;;;;;36.92;18.35;;;;;;;5.95;81.86;101259.50;5044512;28;20033;-57
2021/10/03 04:44:34;;;;;;;46.58;18.63;;;;;;;6.22;81.31;101297.63;5040184;28;20040;-57
2021/10/03 04:47:00;;;;;;;60.20;18.67;;;;;;;6.33;81.23;101292.56;5044135;28;20057;-56
2021/10/03 04:49:26;;;;;;;59.42;20.05;;;;;;;6.42;80.46;101291.75;5011194;28;20111;-57
2021/10/03 04:51:51;;;;;;;43.28;19.50;;;;;;;6.51;80.49;101297.00;5035154;28;20048;-58
2021/10/03 04:54:18;;;;;;;44.55;18.30;;;;;;;6.57;79.92;101291.88;5041997;28;20044;-56
2021/10/03 04:56:44;;;;;;;47.72;17.50;;;;;;;6.66;79.38;101297.09;5020714;28;20517;-58
2021/10/03 04:59:09;;;;;;;38.80;18.08;;;;;;;6.75;78.90;101298.03;5035209;28;20052;-59
2021/10/03 05:01:35;;;;;;;36.72;17.40;;;;;;;6.84;78.75;101293.78;5042065;28;20037;-58
2021/10/03 05:04:01;;;;;;;34.38;17.58;;;;;;;6.95;78.26;101300.78;5028739;28;20512;-58
2021/10/03 05:06:27;;;;;;;38.55;16.70;;;;;;;6.90;77.43;101278.31;5031224;28;20033;-58
2021/10/03 05:08:53;;;;;;;48.05;18.83;;;;;;;7.13;77.08;101302.59;5050236;28;20090;-58
2021/10/03 05:11:19;;;;;;;189.18;28.17;;;;;;;7.20;76.80;101291.44;5021456;28;20037;-57
2021/10/03 05:13:45;;;;;;;38.28;17.98;;;;;;;7.40;76.21;101307.03;5026818;28;20064;-56
2021/10/03 05:16:10;;;;;;;33.22;16.00;;;;;;;7.49;75.63;101297.59;5034366;28;20048;-58
2021/10/03 05:18:37;;;;;;;81.95;19.73;;;;;;;7.63;74.76;101305.41;5037248;28;20056;-58
2021/10/03 05:21:06;;;;;;;32.85;15.68;;;;;;;7.72;73.81;101308.03;5027779;28;20144;-57
2021/10/03 05:23:32;;;;;;;35.13;15.88;;;;;;;7.73;73.23;101306.31;5027234;28;20073;-58
2021/10/03 05:25:58;;;;;;;31.42;15.85;;;;;;;7.92;72.44;101303.78;5029933;28;20091;-58
2021/10/03 05:28:24;;;;;;;34.10;15.65;;;;;;;8.23;71.21;101309.88;5031492;28;20120;-57
2021/10/03 05:30:50;;;;;;;27.33;14.95;;;;;;;8.56;70.26;101308.19;5036810;28;20037;-59
2021/10/03 05:33:16;;;;;;;26.35;14.10;;;;;;;9.13;67.78;101302.94;5043631;28;20056;-56
2021/10/03 05:35:41;;;;;;;26.33;13.45;;;;;;;9.74;64.04;101307.88;5038025;28;20065;-58
2021/10/03 05:38:07;;;;;;;24.67;12.63;;;;;;;10.12;61.87;101302.47;5038499;28;20045;-58
2021/10/03 05:40:33;;;;;;;23.10;12.85;;;;;;;10.60;59.71;101303.88;5041167;28;20068;-58
2021/10/03 05:43:00;;;;;;;22.45;13.52;;;;;;;10.86;58.52;101286.28;5034285;28;20413;-57
2021/10/03 05:45:26;;;;;;;26.50;13.68;;;;;;;11.57;56.75;101300.22;5043566;28;20520;-58
2021/10/03 05:47:52;;;;;;;23.17;12.32;;;;;;;11.82;54.77;101290.41;5036194;28;20433;-59
2021/10/03 05:50:18;;;;;;;19.65;12.23;;;;;;;11.84;54.39;101294.69;5028890;28;20044;-62
2021/10/03 05:52:44;;;;;;;25.10;13.65;;;;;;;11.97;53.80;101297.13;5028082;28;20052;-59
2021/10/03 05:55:10;;;;;;;20.70;13.13;;;;;;;12.24;52.80;101292.38;5028269;28;20048;-58
2021/10/03 05:57:36;;;;;;;20.55;12.82;;;;;;;13.10;51.29;101286.53;5019628;28;20045;-58
2021/10/03 06:00:04;;;;;;;19.10;11.18;;;;;;;13.82;48.49;101296.38;5025189;28;20044;-58
2021/10/03 06:02:30;;;;;;;20.67;11.85;;;;;;;13.99;47.33;101287.28;5032849;28;20041;-59
2021/10/03 06:04:56;;;;;;;18.92;12.00;;;;;;;14.41;46.77;101292.44;5039908;28;20053;-59
2021/10/03 06:07:21;;;;;;;18.95;11.60;;;;;;;15.08;45.33;101301.16;5045267;28;20890;-58
2021/10/03 06:09:47;;;;;;;17.67;10.73;;;;;;;15.32;43.75;101294.41;5042613;28;20065;-58
2021/10/03 06:12:13;;;;;;;18.33;11.82;;;;;;;15.52;42.98;101295.59;5006785;28;20042;-57
2021/10/03 06:14:39;;;;;;;21.02;11.85;;;;;;;15.75;42.57;101299.31;5040117;28;20056;-58
2021/10/03 06:17:04;;;;;;;17.25;11.90;;;;;;;16.00;41.79;101287.16;5028096;28;20456;-58
2021/10/03 06:19:30;;;;;;;19.58;11.23;;;;;;;16.32;40.93;101289.63;5043236;28;20094;-58
2021/10/03 06:21:58;;;;;;;15.82;10.95;;;;;;;16.71;40.20;101292.72;5040722;28;20041;-57
2021/10/03 06:24:23;;;;;;;20.35;12.07;;;;;;;17.00;39.61;101302.25;5011293;28;20052;-58
2021/10/03 06:26:49;;;;;;;21.30;11.65;;;;;;;16.96;39.11;101295.34;5036587;28;20046;-57
2021/10/03 06:29:16;;;;;;;14.23;10.43;;;;;;;16.95;39.16;101293.66;5029170;28;20083;-58
2021/10/03 06:31:42;;;;;;;15.77;10.30;;;;;;;17.05;38.09;101283.69;5015396;28;20417;-58
2021/10/03 06:34:08;;;;;;;17.38;10.15;;;;;;;16.84;38.57;101303.69;5009756;28;20121;-57
2021/10/03 06:36:33;;;;;;;15.23;10.93;;;;;;;16.75;38.57;101289.06;5021253;28;20128;-58
2021/10/03 06:38:59;;;;;;;17.02;11.75;;;;;;;17.39;37.87;101297.31;5017204;28;20044;-57
2021/10/03 06:41:25;;;;;;;17.23;11.30;;;;;;;17.41;37.30;101298.13;5041892;28;20033;-57
2021/10/03 06:43:51;;;;;;;16.92;11.43;;;;;;;17.27;37.45;101290.72;5031688;28;20025;-58
2021/10/03 06:46:19;;;;;;;20.35;12.00;;;;;;;17.31;37.24;101297.59;5047565;28;20056;-58
2021/10/03 06:48:44;;;;;;;19.85;11.85;;;;;;;17.30;37.14;101288.00;5031770;28;20127;-57
2021/10/03 06:51:12;;;;;;;16.77;11.00;;;;;;;17.81;36.63;101299.28;5050656;28;20288;-58
2021/10/03 06:53:38;;;;;;;19.00;12.70;;;;;;;17.96;36.46;101294.28;5046801;28;20047;-55
2021/10/03 06:56:04;;;;;;;17.65;11.65;;;;;;;18.58;35.77;101288.28;5045203;28;20520;-55
2021/10/03 06:58:30;;;;;;;17.48;11.57;;;;;;;19.26;34.40;101309.03;5034184;28;20087;-58
2021/10/03 07:00:56;;;;;;;16.35;11.77;;;;;;;19.24;34.05;101287.16;5036007;28;20049;-56
2021/10/03 07:03:21;;;;;;;20.35;12.43;;;;;;;19.63;33.58;101302.13;5048911;28;20522;-56
2021/10/03 07:05:47;;;;;;;17.20;11.90;;;;;;;19.94;33.05;101297.13;5046115;28;20127;-57
2021/10/03 07:08:13;;;;;;;18.17;13.25;;;;;;;20.31;32.39;101290.97;5042164;28;20072;-57
2021/10/03 07:10:39;;;;;;;18.80;12.45;;;;;;;20.55;31.71;101297.69;5050725;28;20052;-57
2021/10/03 07:13:06;;;;;;;20.23;12.57;;;;;;;20.49;31.54;101291.84;5036654;28;20314;-57
2021/10/03 07:15:32;;;;;;;17.35;12.52;;;;;;;20.26;31.86;101306.16;5031738;28;20045;-59
2021/10/03 07:17:58;;;;;;;18.77;12.88;;;;;;;20.11;32.16;101296.31;5050739;28;20055;-57
2021/10/03 07:20:24;;;;;;;17.13;12.50;;;;;;;20.31;31.74;101304.16;5041792;28;20041;-58
2021/10/03 07:22:50;;;;;;;20.15;13.32;;;;;;;20.28;32.00;101291.94;5049678;28;20626;-56
2021/10/03 07:25:16;;;;;;;17.52;13.20;;;;;;;20.19;32.10;101281.84;5037733;28;20045;-58
2021/10/03 07:27:42;;;;;;;18.65;13.65;;;;;;;19.95;32.25;101296.19;5029952;28;20094;-58
2021/10/03 07:30:08;;;;;;;17.02;12.77;;;;;;;19.55;32.69;101291.06;5032016;28;20069;-58
2021/10/03 07:32:34;;;;;;;20.48;12.93;;;;;;;19.60;32.71;101278.53;5037755;28;20041;-56
2021/10/03 07:35:00;;;;;;;17.85;12.13;;;;;;;20.34;32.31;101298.75;5041273;28;20543;-58
2021/10/03 07:37:25;;;;;;;17.17;12.05;;;;;;;20.55;31.44;101289.75;5030361;28;20049;-57
2021/10/03 07:39:51;;;;;;;22.00;14.00;;;;;;;20.35;31.47;101289.03;5036947;28;20037;-58
2021/10/03 07:42:17;;;;;;;16.30;12.85;;;;;;;20.22;31.46;101288.75;5049657;28;20061;-58
2021/10/03 07:44:43;;;;;;;17.48;11.98;;;;;;;19.80;31.79;101289.88;5038628;28;20134;-59
2021/10/03 07:47:08;;;;;;;18.73;13.27;;;;;;;20.03;31.74;101286.16;5046836;28;20542;-59
2021/10/03 07:49:34;;;;;;;18.50;13.18;;;;;;;20.67;31.46;101288.31;5037008;28;20056;-58
2021/10/03 07:52:00;;;;;;;17.30;12.77;;;;;;;20.69;30.74;101259.97;5035697;28;20424;-58
2021/10/03 07:54:26;;;;;;;18.15;12.82;;;;;;;21.44;30.08;101294.81;5031371;28;20076;-57
2021/10/03 07:56:51;;;;;;;22.92;13.32;;;;;;;21.39;29.89;101288.94;5023861;28;20998;-58
2021/10/03 07:59:18;;;;;;;19.77;12.77;;;;;;;21.66;29.33;101278.63;5027699;28;20044;-58
2021/10/03 08:01:43;;;;;;;24.65;14.52;;;;;;;22.17;28.85;101282.84;5028468;28;20076;-59
2021/10/03 08:04:09;;;;;;;20.65;14.13;;;;;;;22.11;28.90;101274.38;5038079;28;20115;-59
2021/10/03 08:06:35;;;;;;;22.40;14.65;;;;;;;22.66;28.52;101282.66;5035604;28;20443;-58
2021/10/03 08:09:01;;;;;;;20.50;14.95;;;;;;;22.65;28.05;101279.16;5032049;28;20513;-57
2021/10/03 08:11:27;;;;;;;21.50;14.52;;;;;;;21.73;28.82;101282.63;5049041;28;20580;-54
2021/10/03 08:13:53;;;;;;;18.88;13.68;;;;;;;21.32;29.50;101287.53;5040871;28;20184;-49
2021/10/03 08:16:19;;;;;;;25.73;14.70;;;;;;;20.84;30.06;101276.84;5019493;28;20091;-50
2021/10/03 08:18:46;;;;;;;19.25;13.82;;;;;;;20.68;30.38;101280.25;5031226;28;20041;-48
2021/10/03 08:21:12;;;;;;;20.63;14.38;;;;;;;20.48;30.82;101283.06;5043687;28;20044;-48
2021/10/03 08:23:38;;;;;;;21.00;13.52;;;;;;;20.70;30.76;101278.41;5044102;28;20033;-48
2021/10/03 08:26:04;;;;;;;19.33;14.70;;;;;;;21.22;30.12;101282.81;5036464;28;20124;-48
2021/10/03 08:28:30;;;;;;;20.98;14.65;;;;;;;20.88;30.34;101266.06;5021188;28;20048;-47
2021/10/03 08:30:55;;;;;;;21.88;14.52;;;;;;;21.02;30.13;101274.13;5028958;28;20120;-50
2021/10/03 08:33:21;;;;;;;21.10;14.55;;;;;;;21.19;29.86;101285.63;5028661;28;20060;-49
2021/10/03 08:35:47;;;;;;;21.73;14.15;;;;;;;21.05;29.92;101295.09;5029055;28;20041;-48
2021/10/03 08:38:13;;;;;;;29.55;16.00;;;;;;;20.95;29.86;101291.22;5030671;28;20060;-49
2021/10/03 08:40:38;;;;;;;22.80;15.68;;;;;;;20.77;30.27;101286.91;5021443;28;20045;-53
2021/10/03 08:43:08;;;;;;;20.77;15.32;;;;;;;21.51;29.23;101290.91;5019587;28;20041;-51
2021/10/03 08:45:42;;;;;;;22.30;13.43;;;;;;;21.36;29.02;101296.16;5029716;28;20041;-51
2021/10/03 08:48:16;;;;;;;17.95;13.70;;;;;;;21.02;29.30;101303.22;5027779;28;20528;-49
2021/10/03 08:50:43;;;;;;;18.38;13.50;;;;;;;21.16;29.22;101296.34;5026965;28;20520;-52
2021/10/03 08:53:10;;;;;;;19.65;14.93;;;;;;;21.61;28.77;101267.44;5028848;28;20053;-52
2021/10/03 08:55:35;;;;;;;18.40;13.02;;;;;;;22.07;27.94;101270.19;5030603;28;20049;-48
2021/10/03 08:58:02;;;;;;;35.15;17.00;;;;;;;22.66;27.40;101293.25;5030271;28;20083;-51
2021/10/03 09:00:28;;;;;;;22.98;15.23;;;;;;;22.27;27.68;101297.28;5022684;28;20516;-50
2021/10/03 09:03:04;;;;;;;23.75;14.75;;;;;;;21.85;28.18;101299.66;5015259;28;20048;-52
2021/10/03 09:05:45;;;;;;;19.15;14.05;;;;;;;21.72;28.40;101293.34;5028391;28;20045;-51
2021/10/03 09:08:16;;;;;;;22.73;14.45;;;;;;;22.05;28.28;101288.81;5028998;28;20131;-49
2021/10/03 09:10:55;;;;;;;20.35;14.73;;;;;;;22.85;27.66;101296.56;5039458;28;20056;-50
2021/10/03 09:13:22;;;;;;;;;;;;;;;23.61;26.80;101287.41;5024092;28;20045;-51
2021/10/03 09:16:08;;;;;;;27.90;16.35;;;;;;;23.78;26.53;101294.31;5042144;28;19967;-50
2021/10/03 09:18:47;;;;;;;25.63;17.50;;;;;;;23.70;26.09;101301.94;5027668;28;20049;-48
2021/10/03 09:21:28;;;;;;;23.55;16.73;;;;;;;22.43;27.45;101293.72;5013692;28;20574;-49
2021/10/03 09:23:58;;;;;;;22.98;15.48;;;;;;;22.02;28.14;101290.81;5028799;28;20428;-52
2021/10/03 09:26:25;;;;;;;21.50;15.10;;;;;;;21.65;28.63;101290.16;5028559;28;20045;-49
2021/10/03 09:28:51;;;;;;;21.80;16.20;;;;;;;21.25;29.27;101285.31;5015028;28;20044;-52
2021/10/03 09:31:17;;;;;;;24.30;17.83;;;;;;;20.91;29.61;101287.03;5010897;28;20042;-51
2021/10/03 09:33:50;;;;;;;24.60;15.23;;;;;;;21.17;29.62;101283.06;5027179;28;20151;-53
2021/10/03 09:36:20;;;;;;;26.88;17.70;;;;;;;21.42;29.45;101286.09;5009854;28;20038;-50
2021/10/03 09:38:58;;;;;;;26.50;17.65;;;;;;;21.50;29.33;101286.56;5008704;28;20429;-49
2021/10/03 09:41:26;;;;;;;23.77;17.05;;;;;;;21.55;29.30;101289.81;5009690;28;20034;-47
2021/10/03 09:43:57;;;;;;;25.58;16.92;;;;;;;21.56;29.15;101290.66;5009903;28;20045;-53
2021/10/03 09:46:39;;;;;;;23.15;17.25;;;;;;;21.36;29.58;101293.50;5010057;28;20419;-51
2021/10/03 09:49:07;;;;;;;27.77;16.98;;;;;;;21.73;29.18;101287.94;5009755;28;20042;-52
2021/10/03 09:51:35;;;;;;;25.40;17.25;;;;;;;22.56;27.98;101298.22;5034477;28;20160;-48
2021/10/03 09:54:02;;;;;;;23.77;16.02;;;;;;;22.42;28.11;101294.69;5029041;28;20033;-51
2021/10/03 09:56:30;;;;;;;24.75;17.13;;;;;;;22.53;28.31;101279.84;5028250;28;20452;-50
2021/10/03 09:58:57;;;;;;;25.37;17.13;;;;;;;22.79;27.99;101273.03;5025352;28;20100;-51
2021/10/03 10:01:23;;;;;;;23.05;18.63;;;;;;;23.37;27.49;101293.38;5027727;28;20691;-51
2021/10/03 10:03:49;;;;;;;30.27;17.88;;;;;;;23.27;27.31;101281.63;5029529;28;20037;-50
2021/10/03 10:06:17;;;;;;;24.65;18.52;;;;;;;23.07;27.51;101288.16;5029634;28;20061;-49
2021/10/03 10:08:45;;;;;;;23.05;17.80;;;;;;;22.67;27.93;101279.88;5029777;28;20579;-51
2021/10/03 10:11:26;;;;;;;25.30;16.23;;;;;;;23.01;27.52;101284.09;5022678;28;20132;-53
2021/10/03 10:13:55;;;;;;;30.27;18.65;;;;;;;23.23;27.57;101270.34;5009694;28;20065;-52
2021/10/03 10:16:33;;;;;;;29.42;19.05;;;;;;;23.95;26.70;101272.00;5024530;28;20060;-51
2021/10/03 10:19:33;;;;;;;27.70;18.67;;;;;;;24.83;25.96;101266.94;5010159;28;20103;-50
2021/10/03 10:22:22;;;;;;;30.40;19.90;;;;;;;25.62;25.42;101269.41;5009333;28;20397;-53
2021/10/03 10:24:49;;;;;;;31.35;21.05;;;;;;;26.26;24.97;101266.53;5021514;28;20063;-57
2021/10/03 10:27:21;;;;;;;26.98;17.92;;;;;;;26.80;24.15;101259.66;5031979;28;20041;-53
2021/10/03 10:29:48;;;;;;;25.27;16.05;;;;;;;26.46;24.04;101260.56;5033309;28;20406;-55
2021/10/03 10:32:14;;;;;;;20.20;15.32;;;;;;;25.45;24.59;101255.56;5030969;28;20065;-51
2021/10/03 10:35:08;;;;;;;21.63;18.20;;;;;;;25.55;24.30;101259.25;5032654;28;20548;-55
2021/10/03 10:37:48;;;;;;;20.27;15.85;;;;;;;25.16;24.94;101257.63;5032235;28;20040;-51
2021/10/03 10:40:23;;;;;;;20.55;15.25;;;;;;;24.97;24.99;101243.88;5033044;28;20041;-48
2021/10/03 10:43:04;;;;;;;18.77;13.73;;;;;;;24.94;24.78;101247.63;5031796;28;20040;-53
2021/10/03 10:45:30;;;;;;;23.25;16.98;;;;;;;25.49;24.66;101241.91;5017482;28;20432;-50
2021/10/03 10:48:14;;;;;;;21.50;14.43;;;;;;;25.43;24.19;101245.03;5030724;28;20061;-51
2021/10/03 10:50:44;;;;;;;20.15;13.57;;;;;;;25.81;24.14;101252.06;5029904;28;20120;-52
2021/10/03 10:53:16;;;;;;;18.50;13.63;;;;;;;25.96;23.98;101245.66;5031630;28;20091;-51
2021/10/03 10:55:43;;;;;;;17.48;13.00;;;;;;;26.24;24.02;101247.97;4997200;28;20041;-53
2021/10/03 10:58:10;;;;;;;18.27;13.00;;;;;;;26.45;23.96;101240.19;5011731;28;20033;-49
2021/10/03 11:00:54;;;;;;;18.63;16.05;;;;;;;26.76;23.22;101234.19;5026962;28;20553;-50
2021/10/03 11:03:20;;;;;;;16.67;12.73;;;;;;;27.03;23.25;101235.72;5030163;28;20041;-48
2021/10/03 11:05:47;;;;;;;16.75;12.80;;;;;;;26.13;23.70;101230.09;5016323;28;20053;-51
2021/10/03 11:08:15;;;;;;;15.55;12.77;;;;;;;25.83;23.79;101212.84;5012416;28;20037;-49
2021/10/03 11:11:00;;;;;;;22.05;13.10;;;;;;;25.50;24.25;101224.97;5012539;28;20097;-51
2021/10/03 11:13:41;;;;;;;16.92;12.55;;;;;;;25.68;24.19;101221.00;5012203;28;20057;-52
2021/10/03 11:16:25;;;;;;;14.57;12.40;;;;;;;25.93;24.05;101227.19;5028468;28;20060;-52
2021/10/03 11:19:04;;;;;;;16.48;12.23;;;;;;;25.98;24.04;101225.91;5032220;28;20528;-52